Time;durP1;ratioP1;P1;durP2;ratioP2;P2;SDS_P1;SDS_P2;PMS_P1;PMS_P2;Temp;Humidity;BMP_temperature;BMP_pressure;BME280_temperature;BME280_humidity;BME280_pressure;Samples;Min_cycle;Max_cycle;Signal;HPM_P1;HPM_P2
2023/02/02 00:01:18;;;;;;;14.95;3.97;;;5.10;99.90;;;;;;5019417;28;20032;-58
2023/02/02 00:03:44;;;;;;;13.68;3.78;;;5.10;99.90;;;;;;5019778;28;20026;-60
2023/02/02 00:06:10;;;;;;;17.13;4.13;;;5.10;99.90;;;;;;5017179;28;20052;-60
2023/02/02 00:08:37;;;;;;;23.77;4.97;;;5.10;99.90;;;;;;5021004;28;20048;-60
2023/02/02 00:11:03;;;;;;;19.23;3.58;;;5.20;99.90;;;;;;5018211;28;20087;-59
2023/02/02 00:13:28;;;;;;;22.42;4.07;;;5.10;99.90;;;;;;5019126;28;20516;-60
2023/02/02 00:15:54;;;;;;;18.95;4.57;;;5.20;99.90;;;;;;5016796;28;20092;-60
2023/02/02 00:18:20;;;;;;;25.23;3.78;;;5.20;99.90;;;;;;5017223;28;20034;-60
2023/02/02 00:20:48;;;;;;;16.10;3.95;;;5.20;99.90;;;;;;5016729;28;20026;-58
2023/02/02 00:23:14;;;;;;;20.90;4.25;;;5.20;99.90;;;;;;5018310;28;20021;-59
2023/02/02 00:25:39;;;;;;;20.40;4.75;;;5.20;99.90;;;;;;5017845;28;20037;-56
2023/02/02 00:28:05;;;;;;;18.35;3.92;;;5.10;99.90;;;;;;5019547;28;20023;-61
2023/02/02 00:30:31;;;;;;;12.25;4.43;;;5.10;99.90;;;;;;5017852;28;20033;-60
2023/02/02 00:32:56;;;;;;;13.05;3.05;;;5.20;99.90;;;;;;5019627;28;20056;-60
2023/02/02 00:35:22;;;;;;;19.42;4.57;;;5.20;99.90;;;;;;5017951;28;20065;-60
2023/02/02 00:37:47;;;;;;;14.65;3.78;;;5.20;99.90;;;;;;5018674;28;20116;-60
2023/02/02 00:40:13;;;;;;;18.00;4.32;;;5.20;99.90;;;;;;5018454;28;20018;-58
2023/02/02 00:42:39;;;;;;;18.90;3.70;;;5.20;99.90;;;;;;5019070;28;20030;-60
2023/02/02 00:45:16;;;;;;;17.70;4.00;;;5.20;99.90;;;;;;5018806;28;20025;-60
2023/02/02 00:47:47;;;;;;;13.18;3.42;;;5.20;99.90;;;;;;5017231;28;20422;-61
2023/02/02 00:50:18;;;;;;;13.70;3.60;;;5.20;99.90;;;;;;5017275;28;20032;-60
2023/02/02 00:52:43;;;;;;;12.75;2.90;;;5.20;99.90;;;;;;5018880;28;20084;-59
2023/02/02 00:55:11;;;;;;;17.50;3.08;;;5.10;99.90;;;;;;5017601;28;20033;-58
2023/02/02 00:57:36;;;;;;;13.00;2.75;;;5.10;99.90;;;;;;5016640;28;20044;-60
2023/02/02 01:00:05;;;;;;;20.15;3.30;;;5.10;99.90;;;;;;5018641;28;20029;-60
2023/02/02 01:02:31;;;;;;;14.13;3.13;;;5.10;99.90;;;;;;5018094;28;20060;-59
2023/02/02 01:04:57;;;;;;;18.42;3.10;;;5.10;99.90;;;;;;5016948;28;20060;-59
2023/02/02 01:07:22;;;;;;;10.65;2.53;;;5.10;99.90;;;;;;5017806;28;20029;-59
2023/02/02 01:09:48;;;;;;;12.98;3.20;;;5.10;99.90;;;;;;5017944;28;20097;-56
2023/02/02 01:12:14;;;;;;;9.38;2.83;;;5.00;99.90;;;;;;5018331;28;20025;-57
2023/02/02 01:14:39;;;;;;;14.18;2.72;;;5.00;99.90;;;;;;5014475;28;20041;-59
2023/02/02 01:17:05;;;;;;;12.30;3.08;;;5.00;99.90;;;;;;5015186;28;20570;-60
2023/02/02 01:19:30;;;;;;;12.60;3.28;;;4.90;99.90;;;;;;5016499;28;20037;-59
2023/02/02 01:21:56;;;;;;;13.02;2.97;;;4.90;99.90;;;;;;5016524;28;20026;-59
2023/02/02 01:24:21;;;;;;;11.27;2.38;;;4.80;99.90;;;;;;5017224;28;20026;-60
2023/02/02 01:26:47;;;;;;;23.30;2.97;;;4.80;99.90;;;;;;5018272;28;20029;-59
2023/02/02 01:29:14;;;;;;;20.20;3.72;;;4.80;99.90;;;;;;5018309;28;20022;-55
2023/02/02 01:31:41;;;;;;;12.15;3.92;;;4.80;99.90;;;;;;5017463;28;20037;-56
2023/02/02 01:34:07;;;;;;;11.43;2.17;;;4.70;99.90;;;;;;5020507;28;20495;-60
2023/02/02 01:36:33;;;;;;;9.65;2.38;;;4.70;99.90;;;;;;5020910;28;20036;-60
2023/02/02 01:38:58;;;;;;;9.85;2.70;;;4.60;99.90;;;;;;5022941;28;20021;-58
2023/02/02 01:41:25;;;;;;;5.72;1.50;;;4.60;99.90;;;;;;5022219;28;20033;-56
2023/02/02 01:44:29;;;;;;;11.32;2.80;;;4.50;99.90;;;;;;5022449;28;20071;-60
2023/02/02 01:46:55;;;;;;;7.03;1.42;;;4.50;99.90;;;;;;4992178;28;20025;-59
2023/02/02 01:49:22;;;;;;;4.80;2.17;;;4.40;99.90;;;;;;5020976;28;20083;-59
2023/02/02 01:51:56;;;;;;;3.72;1.08;;;4.30;99.90;;;;;;5021765;28;20026;-61
2023/02/02 01:54:31;;;;;;;5.40;1.52;;;4.30;99.90;;;;;;5021817;28;20030;-60
2023/02/02 01:57:01;;;;;;;7.90;1.20;;;4.30;99.90;;;;;;5020319;28;20356;-60
2023/02/02 01:59:28;;;;;;;5.95;1.85;;;4.30;99.90;;;;;;5018667;28;20099;-59
2023/02/02 02:01:54;;;;;;;10.60;2.70;;;4.30;99.90;;;;;;5018689;28;20029;-60
2023/02/02 02:04:21;;;;;;;8.77;2.47;;;4.30;99.90;;;;;;5020423;28;20044;-57
2023/02/02 02:06:47;;;;;;;11.18;1.90;;;4.40;99.90;;;;;;5021478;28;20052;-60
2023/02/02 02:09:13;;;;;;;12.57;2.75;;;4.40;99.90;;;;;;5022004;28;20849;-60
2023/02/02 02:11:39;;;;;;;11.45;2.78;;;4.30;99.90;;;;;;5021696;28;20038;-59
2023/02/02 02:17:45;;;;;;;13.52;2.70;;;4.40;99.90;;;;;;5021200;28;20080;-60
2023/02/02 02:26:47;;;;;;;10.88;2.88;;;4.30;99.90;;;;;;4978315;28;20042;-59
2023/02/02 02:29:42;;;;;;;11.00;2.17;;;4.30;99.90;;;;;;5020763;28;20055;-60
2023/02/02 02:32:39;;;;;;;9.02;1.65;;;4.30;99.90;;;;;;5019070;28;20040;-58
2023/02/02 02:35:47;;;;;;;5.30;2.00;;;4.40;99.90;;;;;;5020909;28;20028;-60
2023/02/02 02:38:26;;;;;;;11.60;2.88;;;4.30;99.90;;;;;;5019084;28;20492;-58
2023/02/02 02:40:57;;;;;;;14.55;2.97;;;4.30;99.90;;;;;;5021124;28;20028;-59
2023/02/02 02:43:28;;;;;;;10.10;2.67;;;4.30;99.90;;;;;;5020225;28;20091;-56
2023/02/02 02:45:54;;;;;;;12.13;2.90;;;4.30;99.90;;;;;;5020245;28;20051;-59
2023/02/02 02:48:20;;;;;;;10.55;3.30;;;4.30;99.90;;;;;;5020344;28;20048;-60
2023/02/02 02:50:45;;;;;;;13.05;3.40;;;4.20;99.90;;;;;;5020544;28;20077;-59
2023/02/02 02:53:16;;;;;;;15.95;2.53;;;4.20;99.90;;;;;;5020909;28;20057;-58
2023/02/02 02:56:24;;;;;;;14.38;2.78;;;4.20;99.90;;;;;;5020048;28;20022;-59
2023/02/02 02:59:05;;;;;;;15.82;3.75;;;4.20;99.90;;;;;;5017435;28;20095;-57
2023/02/02 03:01:46;;;;;;;13.52;2.03;;;4.30;99.90;;;;;;5020452;28;20022;-59
2023/02/02 03:04:27;;;;;;;12.68;2.50;;;4.30;99.90;;;;;;5020360;28;20507;-60
2023/02/02 03:07:00;;;;;;;7.28;1.95;;;4.30;99.90;;;;;;5020386;28;20018;-56
2023/02/02 03:09:33;;;;;;;9.88;1.58;;;4.20;99.90;;;;;;5020631;28;20032;-58
2023/02/02 03:11:59;;;;;;;8.75;2.22;;;4.10;99.90;;;;;;5021165;28;20052;-58
2023/02/02 03:14:25;;;;;;;5.78;1.63;;;4.00;99.90;;;;;;5020080;28;20484;-56
2023/02/02 03:16:51;;;;;;;5.88;1.15;;;4.00;99.90;;;;;;5019622;28;20140;-60
2023/02/02 03:19:17;;;;;;;4.57;1.33;;;3.90;99.90;;;;;;5020137;28;20116;-60
2023/02/02 03:21:42;;;;;;;7.20;1.65;;;3.80;99.90;;;;;;5020807;28;20117;-60
2023/02/02 03:24:09;;;;;;;3.97;1.17;;;3.80;99.90;;;;;;5020393;28;20052;-57
2023/02/02 03:26:34;;;;;;;6.43;1.13;;;3.80;99.90;;;;;;5020084;28;20096;-58
2023/02/02 03:29:01;;;;;;;5.60;1.77;;;3.80;99.90;;;;;;5020621;28;20110;-57
2023/02/02 03:31:27;;;;;;;6.88;2.13;;;3.80;99.90;;;;;;5020232;28;20037;-58
2023/02/02 03:33:54;;;;;;;10.35;1.92;;;3.80;99.90;;;;;;5018633;28;20029;-57
2023/02/02 03:36:19;;;;;;;9.25;1.98;;;3.80;99.90;;;;;;5018864;28;20032;-58
2023/02/02 03:38:45;;;;;;;10.23;1.98;;;3.90;99.90;;;;;;5017812;28;20025;-58
2023/02/02 03:41:10;;;;;;;8.50;2.58;;;3.90;99.90;;;;;;5019089;28;20037;-60
2023/02/02 03:43:36;;;;;;;10.23;1.63;;;3.90;99.90;;;;;;5018499;28;20026;-60
2023/02/02 03:46:03;;;;;;;10.52;2.03;;;3.90;99.90;;;;;;5019280;28;20040;-58
2023/02/02 03:48:30;;;;;;;14.65;2.60;;;3.90;99.90;;;;;;5019835;28;20036;-59
2023/02/02 03:50:55;;;;;;;11.80;2.03;;;3.90;99.90;;;;;;5020317;28;20506;-58
2023/02/02 03:53:22;;;;;;;5.82;2.10;;;4.00;99.90;;;;;;5019052;28;20105;-57
2023/02/02 03:55:48;;;;;;;17.50;3.38;;;4.00;99.90;;;;;;5019292;28;20033;-59
2023/02/02 03:58:13;;;;;;;15.80;2.85;;;4.00;99.90;;;;;;5019651;28;20075;-58
2023/02/02 04:00:39;;;;;;;12.80;2.90;;;4.00;99.90;;;;;;5019752;28;20025;-57
2023/02/02 04:03:05;;;;;;;13.32;3.00;;;4.00;99.90;;;;;;5018656;28;20041;-60
2023/02/02 04:05:30;;;;;;;11.57;2.65;;;4.00;99.90;;;;;;5019390;28;20030;-60
2023/02/02 04:07:56;;;;;;;8.95;2.53;;;4.10;99.90;;;;;;5018108;28;20022;-58
2023/02/02 04:10:21;;;;;;;9.07;2.05;;;4.10;99.90;;;;;;5018812;28;20054;-61
2023/02/02 04:12:47;;;;;;;13.90;2.65;;;4.10;99.90;;;;;;5017982;28;20040;-60
2023/02/02 04:15:13;;;;;;;7.38;1.65;;;4.10;99.90;;;;;;5018838;28;20022;-60
2023/02/02 04:17:38;;;;;;;7.53;2.17;;;4.10;99.90;;;;;;5019307;28;20029;-60
2023/02/02 04:20:05;;;;;;;7.53;1.98;;;4.10;99.90;;;;;;5019299;28;20112;-59
2023/02/02 04:22:30;;;;;;;18.08;3.92;;;4.10;99.90;;;;;;5017884;28;20026;-58
2023/02/02 04:24:56;;;;;;;12.90;1.63;;;4.20;99.90;;;;;;5018404;28;20021;-59
2023/02/02 04:27:22;;;;;;;14.63;2.28;;;4.10;99.90;;;;;;5018427;28;20059;-58
2023/02/02 04:29:48;;;;;;;11.73;1.88;;;4.10;99.90;;;;;;5019756;28;20030;-59
2023/02/02 04:32:15;;;;;;;14.32;2.00;;;4.10;99.90;;;;;;5017816;28;20026;-60
2023/02/02 04:34:41;;;;;;;9.95;2.50;;;4.10;99.90;;;;;;5017320;28;20113;-60
2023/02/02 04:37:07;;;;;;;14.45;1.80;;;4.10;99.90;;;;;;5018800;28;20022;-56
2023/02/02 04:39:32;;;;;;;10.73;2.67;;;4.10;99.90;;;;;;5019378;28;20381;-58
2023/02/02 04:41:58;;;;;;;5.53;1.70;;;4.10;99.90;;;;;;5019881;28;20021;-59
2023/02/02 04:44:23;;;;;;;14.38;2.10;;;4.10;99.90;;;;;;5018246;28;20045;-59
2023/02/02 04:46:50;;;;;;;13.57;3.15;;;4.10;99.90;;;;;;5019612;28;20052;-60
2023/02/02 04:49:16;;;;;;;7.90;2.10;;;4.10;99.90;;;;;;5019398;28;20105;-60
2023/02/02 04:51:42;;;;;;;9.80;1.73;;;4.10;99.90;;;;;;5019482;28;20055;-59
2023/02/02 04:54:07;;;;;;;11.02;2.58;;;4.10;99.90;;;;;;5017890;28;20084;-60
2023/02/02 04:56:33;;;;;;;17.60;2.80;;;4.10;99.90;;;;;;5018407;28;20575;-60
2023/02/02 04:58:59;;;;;;;15.65;3.40;;;4.10;99.90;;;;;;5018986;28;20537;-55
2023/02/02 05:01:25;;;;;;;10.40;2.80;;;4.10;99.90;;;;;;5018135;28;20038;-60
2023/02/02 05:03:51;;;;;;;10.95;2.33;;;4.10;99.90;;;;;;5017942;28;20026;-60
2023/02/02 05:06:18;;;;;;;12.57;2.22;;;4.10;99.90;;;;;;5016873;28;20033;-58
2023/02/02 05:08:44;;;;;;;5.45;1.60;;;4.10;99.90;;;;;;5019033;28;20030;-60
2023/02/02 05:11:15;;;;;;;9.23;1.83;;;4.00;99.90;;;;;;5018878;28;20458;-59
2023/02/02 05:13:48;;;;;;;15.40;3.08;;;4.00;99.90;;;;;;5018462;28;20029;-60
2023/02/02 05:16:14;;;;;;;14.60;2.30;;;4.00;99.90;;;;;;5016031;28;20029;-58
2023/02/02 05:18:41;;;;;;;13.77;2.45;;;4.10;99.90;;;;;;5017836;28;20091;-60
2023/02/02 05:21:07;;;;;;;9.27;1.95;;;4.10;99.90;;;;;;5017543;28;20026;-58
2023/02/02 05:23:32;;;;;;;14.15;2.60;;;4.10;99.90;;;;;;5016690;28;20448;-60
2023/02/02 05:25:58;;;;;;;9.70;2.50;;;4.10;99.90;;;;;;5017704;28;20112;-59
2023/02/02 05:28:24;;;;;;;15.75;2.28;;;4.00;99.90;;;;;;5016581;28;20035;-60
2023/02/02 05:30:50;;;;;;;16.67;2.03;;;4.00;99.90;;;;;;5018102;28;20042;-58
2023/02/02 05:33:18;;;;;;;11.70;2.25;;;4.00;99.90;;;;;;5015581;28;20033;-60
2023/02/02 05:35:48;;;;;;;17.00;3.47;;;4.10;99.90;;;;;;5017538;28;20034;-57
2023/02/02 05:38:14;;;;;;;13.68;2.53;;;4.10;99.90;;;;;;5017570;28;20033;-60
2023/02/02 05:40:39;;;;;;;17.90;2.58;;;4.10;99.90;;;;;;5018921;28;20842;-59
2023/02/02 05:43:05;;;;;;;10.60;1.92;;;4.00;99.90;;;;;;5016965;28;20026;-57
2023/02/02 05:45:31;;;;;;;16.60;2.50;;;4.10;99.90;;;;;;5017068;28;20889;-60
2023/02/02 05:47:57;;;;;;;13.40;2.38;;;4.10;99.90;;;;;;5015967;28;20034;-60
2023/02/02 05:50:23;;;;;;;12.02;3.25;;;4.10;99.90;;;;;;5017996;28;20033;-58
2023/02/02 05:52:50;;;;;;;12.75;2.90;;;4.10;99.90;;;;;;5017618;28;20025;-61
2023/02/02 05:55:17;;;;;;;16.08;2.70;;;4.10;99.90;;;;;;5018309;28;20037;-60
2023/02/02 05:57:43;;;;;;;14.13;2.90;;;4.10;99.90;;;;;;5017760;28;20037;-60
2023/02/02 06:00:10;;;;;;;16.30;2.75;;;4.10;99.90;;;;;;5016789;28;20060;-61
2023/02/02 06:02:35;;;;;;;10.82;2.65;;;4.10;99.90;;;;;;5018040;28;20043;-57
2023/02/02 06:05:01;;;;;;;14.75;3.58;;;4.00;99.90;;;;;;5018589;28;20021;-59
2023/02/02 06:07:26;;;;;;;8.63;2.10;;;4.00;99.90;;;;;;5016911;28;20500;-60
2023/02/02 06:09:52;;;;;;;11.15;2.70;;;4.00;99.90;;;;;;5017239;28;20080;-60
2023/02/02 06:12:17;;;;;;;12.50;2.97;;;4.00;99.90;;;;;;5017840;28;20034;-58
2023/02/02 06:14:44;;;;;;;12.63;2.72;;;4.00;99.90;;;;;;5017432;28;20033;-56
2023/02/02 06:17:09;;;;;;;24.77;3.17;;;4.00;99.90;;;;;;5016634;28;20045;-59
2023/02/02 06:19:35;;;;;;;9.77;2.42;;;4.00;99.90;;;;;;5020790;28;20026;-58
2023/02/02 06:22:01;;;;;;;11.93;2.80;;;3.90;99.90;;;;;;5021362;28;20065;-59
2023/02/02 06:24:27;;;;;;;14.20;3.45;;;3.90;99.90;;;;;;5019815;28;20193;-60
2023/02/02 06:26:52;;;;;;;14.38;2.35;;;4.00;99.90;;;;;;5020171;28;20038;-60
2023/02/02 06:29:18;;;;;;;12.93;2.47;;;4.00;99.90;;;;;;5020415;28;20469;-58
2023/02/02 06:31:43;;;;;;;11.50;2.90;;;4.00;99.90;;;;;;5021396;28;20025;-60
2023/02/02 06:34:13;;;;;;;9.80;2.58;;;4.00;99.90;;;;;;5021348;28;20110;-60
2023/02/02 06:36:39;;;;;;;15.68;2.75;;;4.00;99.90;;;;;;5018673;28;20037;-61
2023/02/02 06:39:06;;;;;;;10.23;2.28;;;4.00;99.90;;;;;;5020125;28;20030;-58
2023/02/02 06:41:35;;;;;;;10.38;2.17;;;4.10;99.90;;;;;;5020210;28;20453;-55
2023/02/02 06:44:01;;;;;;;12.80;2.15;;;4.10;99.90;;;;;;5021297;28;20022;-59
2023/02/02 06:46:27;;;;;;;11.45;2.67;;;4.10;99.90;;;;;;5020224;28;20055;-60
2023/02/02 06:48:52;;;;;;;13.90;2.65;;;4.10;99.90;;;;;;5021125;28;20058;-57
2023/02/02 06:51:18;;;;;;;13.57;2.00;;;4.10;99.90;;;;;;5020229;28;20038;-60
2023/02/02 06:53:48;;;;;;;7.53;1.98;;;4.10;99.90;;;;;;5021104;28;20033;-60
2023/02/02 06:56:14;;;;;;;12.50;1.88;;;4.00;99.90;;;;;;5019872;28;20218;-59
2023/02/02 06:58:40;;;;;;;7.35;1.60;;;4.00;99.90;;;;;;5020154;28;20040;-60
2023/02/02 07:01:10;;;;;;;10.93;2.60;;;4.10;99.90;;;;;;5019828;28;20033;-58
2023/02/02 07:03:37;;;;;;;5.78;1.40;;;4.00;99.90;;;;;;5019951;28;20208;-60
2023/02/02 07:06:23;;;;;;;9.15;2.13;;;4.00;99.90;;;;;;5020478;28;20472;-59
2023/02/02 07:08:50;;;;;;;6.55;2.00;;;3.90;99.90;;;;;;5019867;28;20104;-60
2023/02/02 07:11:17;;;;;;;15.38;3.20;;;3.90;99.90;;;;;;5019597;28;20571;-61
2023/02/02 07:13:44;;;;;;;4.57;1.20;;;3.90;99.90;;;;;;5019008;28;20036;-59
2023/02/02 07:16:11;;;;;;;6.85;2.92;;;3.80;99.90;;;;;;5019844;28;20078;-58
2023/02/02 07:18:37;;;;;;;8.60;2.05;;;3.90;99.90;;;;;;5017356;28;20065;-58
2023/02/02 07:21:03;;;;;;;6.43;1.05;;;3.90;99.90;;;;;;5019251;28;20064;-59
2023/02/02 07:23:29;;;;;;;6.78;1.77;;;3.90;99.90;;;;;;5020849;28;20030;-60
2023/02/02 07:26:01;;;;;;;6.88;1.42;;;3.90;99.90;;;;;;5018506;28;20045;-61
2023/02/02 07:28:27;;;;;;;11.13;1.77;;;3.80;99.90;;;;;;5018596;28;20049;-61
2023/02/02 07:30:53;;;;;;;12.82;1.85;;;3.80;99.90;;;;;;5018544;28;20018;-59
2023/02/02 07:33:18;;;;;;;9.27;2.15;;;3.80;99.90;;;;;;5020871;28;20029;-60
2023/02/02 07:35:44;;;;;;;6.97;1.77;;;3.80;99.90;;;;;;5019102;28;20022;-61
2023/02/02 07:38:09;;;;;;;13.93;2.15;;;3.80;99.90;;;;;;5018119;28;20483;-61
2023/02/02 07:40:35;;;;;;;5.75;1.15;;;3.80;99.90;;;;;;5018941;28;20527;-60
2023/02/02 07:43:01;;;;;;;11.60;1.58;;;3.80;99.90;;;;;;5019759;28;20014;-59
2023/02/02 07:45:27;;;;;;;7.60;2.15;;;3.80;99.90;;;;;;5017295;28;20060;-59
2023/02/02 07:47:59;;;;;;;12.35;1.75;;;3.80;99.90;;;;;;5020667;28;20047;-60
2023/02/02 07:50:26;;;;;;;19.65;2.30;;;3.90;99.90;;;;;;5018612;28;20079;-60
2023/02/02 07:52:52;;;;;;;11.05;2.22;;;3.90;99.90;;;;;;5020012;28;20022;-59
2023/02/02 07:55:18;;;;;;;8.45;1.80;;;4.00;99.90;;;;;;5019850;28;20029;-61
2023/02/02 07:57:44;;;;;;;12.10;2.58;;;4.00;99.90;;;;;;5019958;28;20025;-61
2023/02/02 08:00:10;;;;;;;12.85;1.98;;;4.00;99.90;;;;;;5019911;28;20491;-60
2023/02/02 08:02:36;;;;;;;9.75;1.95;;;4.00;99.90;;;;;;5019751;28;20044;-60
2023/02/02 08:05:02;;;;;;;10.48;2.45;;;4.10;99.90;;;;;;5018628;28;20025;-60
2023/02/02 08:07:27;;;;;;;6.35;1.92;;;4.10;99.90;;;;;;5019228;28;20121;-60
2023/02/02 08:09:53;;;;;;;8.52;1.83;;;4.10;99.90;;;;;;5019834;28;20017;-60
2023/02/02 08:12:22;;;;;;;6.45;2.35;;;4.10;99.90;;;;;;5018343;28;20026;-61
2023/02/02 08:14:48;;;;;;;13.57;2.40;;;4.10;99.90;;;;;;5018233;28;20056;-60
2023/02/02 08:17:14;;;;;;;8.95;2.13;;;4.10;99.90;;;;;;5018548;28;20029;-58
2023/02/02 08:19:39;;;;;;;9.98;2.55;;;4.10;99.90;;;;;;5018391;28;20456;-59
2023/02/02 08:22:05;;;;;;;9.10;3.00;;;4.20;99.90;;;;;;5019028;28;20025;-59
2023/02/02 08:24:30;;;;;;;18.60;2.15;;;4.10;99.90;;;;;;5018030;28;20049;-64
2023/02/02 08:26:56;;;;;;;13.27;2.15;;;4.10;99.90;;;;;;5018444;28;20032;-59
2023/02/02 08:29:21;;;;;;;13.02;3.03;;;4.10;99.90;;;;;;5017367;28;20033;-61
2023/02/02 08:31:47;;;;;;;15.38;2.10;;;4.10;99.90;;;;;;5018091;28;20120;-59
2023/02/02 08:34:12;;;;;;;13.85;2.38;;;4.10;99.90;;;;;;5019291;28;20419;-57
2023/02/02 08:36:38;;;;;;;15.75;3.22;;;4.10;99.90;;;;;;5015295;28;20474;-60
2023/02/02 08:39:06;;;;;;;15.45;2.45;;;4.20;99.90;;;;;;5019648;28;20056;-60
2023/02/02 08:41:32;;;;;;;9.75;2.38;;;4.20;99.90;;;;;;5018483;28;20026;-60
2023/02/02 08:43:58;;;;;;;9.75;2.17;;;4.20;99.90;;;;;;5018623;28;20029;-60
2023/02/02 08:46:24;;;;;;;12.10;2.92;;;4.20;99.90;;;;;;5018913;28;20105;-61
2023/02/02 08:48:49;;;;;;;11.68;2.65;;;4.30;99.90;;;;;;5018855;28;20026;-61
2023/02/02 08:51:17;;;;;;;13.30;2.20;;;4.30;99.90;;;;;;5019432;28;20029;-60
2023/02/02 08:53:43;;;;;;;10.68;2.03;;;4.30;99.90;;;;;;5018189;28;20029;-60
2023/02/02 08:56:12;;;;;;;19.83;3.28;;;4.40;99.90;;;;;;5016834;28;20476;-58
2023/02/02 08:58:39;;;;;;;15.85;2.22;;;4.40;99.90;;;;;;5018327;28;20032;-58
2023/02/02 09:01:15;;;;;;;9.70;2.50;;;4.50;99.90;;;;;;5017347;28;20076;-59
2023/02/02 09:03:40;;;;;;;11.98;2.63;;;4.60;99.90;;;;;;5017685;28;20033;-58
2023/02/02 09:06:11;;;;;;;14.88;3.17;;;4.80;99.90;;;;;;5017521;28;20025;-59
2023/02/02 09:08:37;;;;;;;7.53;2.00;;;4.80;99.90;;;;;;5019173;28;20021;-59
2023/02/02 09:11:08;;;;;;;14.13;2.35;;;4.90;99.90;;;;;;5017537;28;20040;-60
2023/02/02 09:13:35;;;;;;;10.93;2.42;;;4.90;99.90;;;;;;5017318;28;20026;-60
2023/02/02 09:16:02;;;;;;;11.13;2.38;;;5.00;99.90;;;;;;5017903;28;20041;-61
2023/02/02 09:18:28;;;;;;;13.77;2.30;;;5.10;99.90;;;;;;5017969;28;20030;-60
2023/02/02 09:20:54;;;;;;;13.90;2.67;;;5.10;99.90;;;;;;5018713;28;20018;-59
2023/02/02 09:23:20;;;;;;;10.20;2.80;;;5.10;99.90;;;;;;5018781;28;20129;-58
2023/02/02 09:25:46;;;;;;;6.47;1.95;;;5.20;99.90;;;;;;5018399;28;20020;-60
2023/02/02 09:28:11;;;;;;;14.48;2.78;;;5.30;99.90;;;;;;5017255;28;20391;-60
2023/02/02 09:30:37;;;;;;;9.75;2.08;;;5.30;99.90;;;;;;5019127;28;20034;-59
2023/02/02 09:33:03;;;;;;;16.30;2.60;;;5.40;99.90;;;;;;5018411;28;20104;-61
2023/02/02 09:35:29;;;;;;;10.25;2.83;;;5.40;99.90;;;;;;5017638;28;20037;-60
2023/02/02 09:37:54;;;;;;;13.43;2.33;;;5.50;99.90;;;;;;5017910;28;20399;-59
2023/02/02 09:40:20;;;;;;;18.70;2.65;;;5.50;99.90;;;;;;5018128;28;20025;-59
2023/02/02 09:42:57;;;;;;;12.40;3.20;;;5.50;99.90;;;;;;5018061;28;20076;-59
2023/02/02 09:45:28;;;;;;;10.70;2.65;;;5.60;99.90;;;;;;5017717;28;20099;-58
2023/02/02 09:48:24;;;;;;;11.88;2.45;;;5.60;99.90;;;;;;5017895;28;20021;-60
2023/02/02 09:51:05;;;;;;;7.38;1.70;;;5.70;99.90;;;;;;5018793;28;20033;-60
2023/02/02 09:53:30;;;;;;;12.85;2.67;;;5.80;99.90;;;;;;5019467;28;20412;-59
2023/02/02 09:55:59;;;;;;;9.57;1.98;;;5.80;99.90;;;;;;5021749;28;20040;-58
2023/02/02 09:58:31;;;;;;;7.20;1.52;;;5.90;99.90;;;;;;5021529;28;20407;-60
2023/02/02 10:01:25;;;;;;;12.65;2.45;;;6.00;99.90;;;;;;5019918;28;20026;-60
2023/02/02 10:04:10;;;;;;;10.65;2.45;;;6.00;99.90;;;;;;5019193;28;20116;-58
2023/02/02 10:06:44;;;;;;;9.32;1.75;;;6.10;99.90;;;;;;5020001;28;20082;-60
2023/02/02 10:09:39;;;;;;;16.33;2.70;;;6.20;99.90;;;;;;5022335;28;20568;-59
2023/02/02 10:12:45;;;;;;;11.40;1.98;;;6.30;99.90;;;;;;5004461;28;20049;-60
2023/02/02 10:15:36;;;;;;;8.50;2.35;;;6.30;99.90;;;;;;5020817;28;20028;-59
2023/02/02 10:18:13;;;;;;;5.43;1.35;;;6.30;99.90;;;;;;5019756;28;20484;-60
2023/02/02 10:20:59;;;;;;;8.27;1.88;;;6.30;99.90;;;;;;5021802;28;20026;-58
2023/02/02 10:23:40;;;;;;;10.25;2.72;;;6.20;99.90;;;;;;5020394;28;20021;-60
2023/02/02 10:26:27;;;;;;;8.40;1.67;;;6.30;99.90;;;;;;5021078;28;20488;-59
2023/02/02 10:29:07;;;;;;;10.57;2.47;;;6.30;99.90;;;;;;5020859;28;20026;-61
2023/02/02 10:31:52;;;;;;;10.95;1.85;;;6.30;99.90;;;;;;5021597;28;20051;-59
2023/02/02 10:34:36;;;;;;;12.20;1.92;;;6.30;99.90;;;;;;5020496;28;20021;-58
2023/02/02 10:37:11;;;;;;;6.40;1.70;;;6.30;99.90;;;;;;5020776;28;20511;-56
2023/02/02 10:40:16;;;;;;;5.03;1.50;;;6.40;99.90;;;;;;5019891;28;20049;-60
2023/02/02 10:45:50;;;;;;;5.78;1.73;;;6.50;99.90;;;;;;5021326;28;20143;-59
2023/02/02 10:48:22;;;;;;;11.40;2.38;;;6.40;99.90;;;;;;5019707;28;20026;-60
2023/02/02 10:50:51;;;;;;;5.82;1.63;;;6.40;99.90;;;;;;5021731;28;20025;-58
2023/02/02 10:53:18;;;;;;;5.47;1.08;;;6.30;99.90;;;;;;5019573;28;20029;-60
2023/02/02 10:58:12;;;;;;;5.07;1.27;;;6.20;99.90;;;;;;5039117;22;20050;-56
2023/02/02 11:00:46;;;;;;;9.73;1.75;;;6.20;99.90;;;;;;5015416;28;20042;-54
2023/02/02 11:03:15;;;;;;;10.35;1.88;;;6.20;99.90;;;;;;5019276;28;20100;-53
2023/02/02 11:08:38;;;;;;;8.45;1.40;;;6.20;99.90;;;;;;5000981;28;20073;-55
2023/02/02 11:11:16;;;;;;;5.70;1.30;;;6.20;99.90;;;;;;5001032;28;20029;-57
2023/02/02 11:13:53;;;;;;;5.78;1.88;;;6.40;99.90;;;;;;4998307;28;20069;-56
2023/02/02 11:16:22;;;;;;;6.93;1.50;;;6.40;99.90;;;;;;4998445;28;20511;-54
2023/02/02 11:18:48;;;;;;;8.27;3.53;;;6.40;99.90;;;;;;4998376;28;20033;-57
2023/02/02 11:21:30;;;;;;;3.88;1.75;;;6.40;99.90;;;;;;5000157;28;20092;-58
2023/02/02 11:24:03;;;;;;;10.18;1.55;;;6.40;99.90;;;;;;4999596;28;20026;-55
2023/02/02 11:26:44;;;;;;;9.77;2.08;;;6.40;99.90;;;;;;5014246;28;20026;-53
2023/02/02 11:29:14;;;;;;;6.10;1.73;;;6.50;99.90;;;;;;5000084;28;20495;-54
2023/02/02 11:31:40;;;;;;;5.07;1.13;;;6.50;99.90;;;;;;4998710;28;20025;-53
2023/02/02 11:34:22;;;;;;;7.00;1.73;;;6.60;99.90;;;;;;4999310;28;20018;-55
2023/02/02 11:37:18;;;;;;;6.35;0.90;;;6.70;99.90;;;;;;4999371;28;20096;-58
2023/02/02 11:39:44;;;;;;;6.85;1.10;;;6.70;99.90;;;;;;4999449;28;20431;-55
2023/02/02 11:42:17;;;;;;;14.48;1.58;;;6.70;99.90;;;;;;5000983;28;20057;-58
2023/02/02 11:44:47;;;;;;;5.43;1.60;;;6.70;99.90;;;;;;4999149;28;20027;-57
2023/02/02 11:47:31;;;;;;;3.78;0.93;;;6.70;99.90;;;;;;4999865;28;20022;-55
2023/02/02 11:50:00;;;;;;;4.13;1.00;;;6.70;99.90;;;;;;5000560;28;20018;-54
2023/02/02 11:52:27;;;;;;;7.85;1.45;;;6.80;99.90;;;;;;4996659;28;20023;-57
2023/02/02 11:54:59;;;;;;;4.50;0.82;;;6.90;99.90;;;;;;4997742;28;20026;-56
2023/02/02 11:57:27;;;;;;;3.58;1.05;;;7.00;99.90;;;;;;4998680;28;20041;-57
2023/02/02 12:00:27;;;;;;;7.22;1.95;;;7.10;99.90;;;;;;4998989;28;20117;-55
2023/02/02 12:02:52;;;;;;;3.72;1.52;;;7.00;99.90;;;;;;4968339;28;20081;-54
2023/02/02 12:05:18;;;;;;;5.75;1.10;;;7.00;99.90;;;;;;4998171;28;20026;-58
2023/02/02 12:07:44;;;;;;;8.48;1.33;;;7.00;99.90;;;;;;4996292;28;20022;-55
2023/02/02 12:10:42;;;;;;;6.28;1.60;;;6.90;99.90;;;;;;4999886;28;20113;-58
2023/02/02 12:13:29;;;;;;;5.90;1.75;;;6.90;99.90;;;;;;4932008;28;20052;-54
2023/02/02 12:16:10;;;;;;;4.90;1.27;;;6.80;99.90;;;;;;5010922;28;20030;-58
2023/02/02 12:19:02;;;;;;;8.15;1.50;;;6.80;99.90;;;;;;4997543;28;20022;-55
2023/02/02 12:22:08;;;;;;;6.30;1.15;;;6.80;99.90;;;;;;4998480;28;20033;-55
2023/02/02 12:24:41;;;;;;;8.68;1.52;;;6.70;99.90;;;;;;5001451;28;20022;-55
2023/02/02 12:27:22;;;;;;;5.57;1.85;;;6.60;99.90;;;;;;4999370;28;20500;-54
2023/02/02 12:29:57;;;;;;;5.90;1.60;;;6.60;99.90;;;;;;5000217;28;20045;-56
2023/02/02 12:32:34;;;;;;;6.33;0.83;;;6.60;99.90;;;;;;4999466;28;20508;-54
2023/02/02 12:35:37;;;;;;;2.83;0.70;;;6.60;99.90;;;;;;4996906;28;20044;-57
2023/02/02 12:38:28;;;;;;;7.80;2.10;;;6.50;99.90;;;;;;4996492;28;20053;-58
2023/02/02 12:41:28;;;;;;;4.47;1.15;;;6.50;99.90;;;;;;4998264;28;20029;-57
2023/02/02 12:44:10;;;;;;;9.18;1.77;;;6.40;99.90;;;;;;4946964;28;20057;-57
2023/02/02 12:46:38;;;;;;;7.57;1.05;;;6.40;99.90;;;;;;4998697;28;20084;-57
2023/02/02 12:49:29;;;;;;;9.40;2.00;;;6.40;99.90;;;;;;4998752;28;20060;-56
2023/02/02 12:52:22;;;;;;;7.15;1.73;;;6.50;99.90;;;;;;4997652;28;20061;-57
2023/02/02 12:55:08;;;;;;;4.45;1.42;;;6.50;99.90;;;;;;4999753;28;20042;-57
2023/02/02 12:57:49;;;;;;;6.30;1.00;;;6.70;99.90;;;;;;4995920;28;20377;-56
2023/02/02 13:00:22;;;;;;;3.20;0.93;;;6.80;99.90;;;;;;4997577;28;20496;-57
2023/02/02 13:03:25;;;;;;;6.60;0.77;;;6.90;99.90;;;;;;5012310;28;20030;-54
2023/02/02 13:06:09;;;;;;;5.78;1.20;;;6.90;99.90;;;;;;4998147;28;20054;-56
2023/02/02 13:08:41;;;;;;;7.25;1.63;;;7.00;99.90;;;;;;4998191;28;20024;-57
2023/02/02 13:11:28;;;;;;;7.22;1.30;;;7.00;99.90;;;;;;4997832;28;20026;-58
2023/02/02 13:13:58;;;;;;;8.48;1.00;;;7.00;99.90;;;;;;4998373;28;20018;-58
2023/02/02 13:16:25;;;;;;;3.55;0.98;;;7.00;99.90;;;;;;4995324;28;20451;-58
2023/02/02 13:19:14;;;;;;;7.72;1.13;;;7.00;99.90;;;;;;4996937;28;20030;-56
2023/02/02 13:21:42;;;;;;;2.72;1.08;;;6.90;99.90;;;;;;4995246;28;20046;-57
2023/02/02 13:24:14;;;;;;;2.95;1.15;;;6.80;99.90;;;;;;4997279;28;20391;-58
2023/02/02 13:26:44;;;;;;;7.85;1.65;;;6.70;99.90;;;;;;4994296;28;20243;-58